createdAt,value
2019-02-07T00:00:53.315Z,23.10
2019-02-07T00:01:53.307Z,21.50
2019-02-07T00:02:53.297Z,21.40
2019-02-07T00:03:53.309Z,21.60
2019-02-07T00:04:53.278Z,19.00
2019-02-07T00:05:53.264Z,20.40
2019-02-07T00:06:54.658Z,21.00
2019-02-07T00:07:54.896Z,23.00
2019-02-07T00:08:53.239Z,21.80
2019-02-07T00:09:53.231Z,20.40
2019-02-07T00:10:53.219Z,20.90
2019-02-07T00:11:53.211Z,20.70
2019-02-07T00:12:53.193Z,21.50
2019-02-07T00:13:53.183Z,22.00
2019-02-07T00:14:53.172Z,19.70
2019-02-07T00:15:53.167Z,23.00
2019-02-07T00:16:54.897Z,18.70
2019-02-07T00:17:53.148Z,21.20
2019-02-07T00:18:54.899Z,19.80
2019-02-07T00:19:53.138Z,22.90
2019-02-07T00:20:54.898Z,22.70
2019-02-07T00:21:54.899Z,22.00
2019-02-07T00:22:53.096Z,20.80
2019-02-07T00:23:53.081Z,19.90
2019-02-07T00:24:53.070Z,24.60
2019-02-07T00:25:54.890Z,20.30
2019-02-07T00:26:53.051Z,20.10
2019-02-07T00:27:53.046Z,21.40
2019-02-07T00:28:53.034Z,20.90
2019-02-07T00:29:53.022Z,21.40
2019-02-07T00:30:54.904Z,18.20
2019-02-07T00:31:53.000Z,20.80
2019-02-07T00:32:52.984Z,19.10
2019-02-07T00:33:52.980Z,23.00
2019-02-07T00:34:52.977Z,22.10
2019-02-07T00:35:52.973Z,19.90
2019-02-07T00:36:52.953Z,20.60
2019-02-07T00:37:52.942Z,18.10
2019-02-07T00:38:52.928Z,19.70
2019-02-07T00:39:52.917Z,21.90
2019-02-07T00:40:52.912Z,23.70
2019-02-07T00:41:52.902Z,22.70
2019-02-07T00:42:52.893Z,18.30
2019-02-07T00:43:52.882Z,23.60
2019-02-07T00:44:53.842Z,22.70
2019-02-07T00:45:52.861Z,20.30
2019-02-07T00:46:52.851Z,22.00
2019-02-07T00:47:52.840Z,20.80
2019-02-07T00:48:52.837Z,19.50
2019-02-07T00:49:52.821Z,18.80
2019-02-07T00:50:52.811Z,18.40
2019-02-07T00:51:52.798Z,18.70
2019-02-07T00:52:52.787Z,23.80
2019-02-07T00:53:52.781Z,18.80
2019-02-07T00:54:52.773Z,21.60
2019-02-07T00:55:52.757Z,20.60
2019-02-07T00:56:52.746Z,20.10
2019-02-07T00:57:52.743Z,18.40
2019-02-07T00:58:52.728Z,19.00
2019-02-07T00:59:52.721Z,19.40
2019-02-07T01:00:52.709Z,19.20
2019-02-07T01:01:52.700Z,22.20
2019-02-07T01:02:52.690Z,19.70
2019-02-07T01:03:52.680Z,19.70
2019-02-07T01:04:52.667Z,19.70
2019-02-07T01:05:52.658Z,20.30
2019-02-07T01:06:52.651Z,24.50
2019-02-07T01:07:52.640Z,23.20
2019-02-07T01:08:52.629Z,19.10
2019-02-07T01:09:52.617Z,21.80
2019-02-07T01:10:52.610Z,21.30
2019-02-07T01:11:52.600Z,20.10
2019-02-07T01:12:52.589Z,23.00
2019-02-07T01:13:52.581Z,19.10
2019-02-07T01:15:01.657Z,22.90
2019-02-07T01:15:52.558Z,21.50
2019-02-07T01:16:52.548Z,21.20
2019-02-07T01:17:52.537Z,21.00
2019-02-07T01:18:52.529Z,22.10
2019-02-07T01:19:52.521Z,20.30
2019-02-07T01:20:52.515Z,19.30
2019-02-07T01:21:52.502Z,22.00
2019-02-07T01:22:52.491Z,21.00
2019-02-07T01:23:52.477Z,22.80
2019-02-07T01:24:52.466Z,21.70
2019-02-07T01:25:52.465Z,22.20
2019-02-07T01:26:52.453Z,20.70
2019-02-07T01:27:52.436Z,22.00
2019-02-07T01:28:52.428Z,19.50
2019-02-07T01:29:52.417Z,20.30
2019-02-07T01:30:52.409Z,21.00
2019-02-07T01:31:52.400Z,23.80
2019-02-07T01:32:52.390Z,19.60
2019-02-07T01:33:52.383Z,18.80
2019-02-07T01:34:52.367Z,19.80
2019-02-07T01:35:52.355Z,20.30
2019-02-07T01:36:53.915Z,20.50
2019-02-07T01:37:53.925Z,22.30
2019-02-07T01:38:52.343Z,18.00
2019-02-07T01:39:53.929Z,21.40
2019-02-07T01:40:53.926Z,25.50
2019-02-07T01:41:53.921Z,17.60
2019-02-07T01:42:52.292Z,19.50
2019-02-07T01:43:52.277Z,19.10
2019-02-07T01:44:52.270Z,21.40
2019-02-07T01:45:52.261Z,20.20
2019-02-07T01:46:52.251Z,23.70
2019-02-07T01:47:52.237Z,21.80
2019-02-07T01:48:52.226Z,19.90
2019-02-07T01:49:52.216Z,22.30
2019-02-07T01:50:52.210Z,19.00
2019-02-07T01:51:52.198Z,18.90
2019-02-07T01:52:52.191Z,19.30
2019-02-07T01:53:52.180Z,19.60
2019-02-07T01:54:52.170Z,21.50
2019-02-07T01:55:52.159Z,17.00
2019-02-07T01:56:52.145Z,20.70
2019-02-07T01:57:52.138Z,22.10
2019-02-07T01:58:52.159Z,19.10
2019-02-07T01:59:52.116Z,20.40
2019-02-07T02:00:52.119Z,23.20
2019-02-07T02:01:52.096Z,20.10
2019-02-07T02:02:52.088Z,22.70
2019-02-07T02:03:52.085Z,21.80
2019-02-07T02:04:52.063Z,23.10
2019-02-07T02:05:52.057Z,18.10
2019-02-07T02:06:52.048Z,24.80
2019-02-07T02:07:52.036Z,20.20
2019-02-07T02:08:52.029Z,19.50
2019-02-07T02:09:52.014Z,20.90
2019-02-07T02:10:52.007Z,17.20
2019-02-07T02:11:51.998Z,20.50
2019-02-07T02:12:51.990Z,19.40
2019-02-07T02:13:51.974Z,19.80
2019-02-07T02:14:51.965Z,18.50
2019-02-07T02:15:51.958Z,19.70
2019-02-07T02:16:51.948Z,20.60
2019-02-07T02:17:51.939Z,22.10
2019-02-07T02:18:51.925Z,21.60
2019-02-07T02:19:51.916Z,18.90
2019-02-07T02:20:51.903Z,20.00
2019-02-07T02:21:51.894Z,21.40
2019-02-07T02:22:51.885Z,21.10
2019-02-07T02:23:51.878Z,17.60
2019-02-07T02:24:51.867Z,19.30
2019-02-07T02:25:51.857Z,20.00
2019-02-07T02:26:51.846Z,20.40
2019-02-07T02:27:51.838Z,18.70
2019-02-07T02:28:51.823Z,18.60
2019-02-07T02:29:51.817Z,20.00
2019-02-07T02:30:51.810Z,18.50
2019-02-07T02:31:51.795Z,21.70
2019-02-07T02:32:51.785Z,20.30
2019-02-07T02:33:51.772Z,19.80
2019-02-07T02:34:51.765Z,22.20
2019-02-07T02:35:51.756Z,22.40
2019-02-07T02:36:51.750Z,19.20
2019-02-07T02:37:51.738Z,19.80
2019-02-07T02:38:51.726Z,21.00
2019-02-07T02:39:51.717Z,18.90
2019-02-07T02:40:51.705Z,21.50
2019-02-07T02:41:51.694Z,19.30
2019-02-07T02:42:51.685Z,18.60
2019-02-07T02:43:51.679Z,20.80
2019-02-07T02:44:51.667Z,19.90
2019-02-07T02:45:51.654Z,18.30
2019-02-07T02:46:51.647Z,19.80
2019-02-07T02:47:51.640Z,17.60
2019-02-07T02:48:51.629Z,19.50
2019-02-07T02:49:51.618Z,31.50
2019-02-07T02:50:51.608Z,20.60
2019-02-07T02:51:51.601Z,21.00
2019-02-07T02:52:51.588Z,20.00
2019-02-07T02:53:51.574Z,21.00
2019-02-07T02:54:51.569Z,20.80
2019-02-07T02:55:51.557Z,21.50
2019-02-07T02:56:53.450Z,20.70
2019-02-07T02:57:51.540Z,23.40
2019-02-07T02:58:51.532Z,21.70
2019-02-07T02:59:51.515Z,25.50
2019-02-07T03:00:51.504Z,19.80
2019-02-07T03:01:51.498Z,20.50
2019-02-07T03:02:51.490Z,21.10
2019-02-07T03:03:51.473Z,18.70
2019-02-07T03:04:51.464Z,18.70
2019-02-07T03:05:51.458Z,20.20
2019-02-07T03:06:51.446Z,24.70
2019-02-07T03:07:51.438Z,24.90
2019-02-07T03:08:51.428Z,21.10
2019-02-07T03:09:52.956Z,26.00
2019-02-07T03:10:51.409Z,23.70
2019-02-07T03:11:51.394Z,21.80
2019-02-07T03:12:52.959Z,22.50
2019-02-07T03:13:51.375Z,23.00
2019-02-07T03:14:51.370Z,18.50
2019-02-07T03:15:51.357Z,20.30
2019-02-07T03:16:51.349Z,23.40
2019-02-07T03:17:51.337Z,19.60
2019-02-07T03:18:51.331Z,18.90
2019-02-07T03:19:51.328Z,20.90
2019-02-07T03:20:51.316Z,18.10
2019-02-07T03:21:51.298Z,23.10
2019-02-07T03:22:51.290Z,19.60
2019-02-07T03:23:51.276Z,19.70
2019-02-07T03:24:51.263Z,21.80
2019-02-07T03:25:51.253Z,17.50
2019-02-07T03:26:51.312Z,20.50
2019-02-07T03:27:51.237Z,19.50
2019-02-07T03:28:51.226Z,26.10
2019-02-07T03:29:51.220Z,19.90
2019-02-07T03:30:51.211Z,20.80
2019-02-07T03:31:51.195Z,20.40
2019-02-07T03:32:51.184Z,17.60
2019-02-07T03:33:51.177Z,21.60
2019-02-07T03:34:51.164Z,25.30
2019-02-07T03:35:51.153Z,25.90
2019-02-07T03:36:51.147Z,22.10
2019-02-07T03:37:51.133Z,23.60
2019-02-07T03:38:51.125Z,23.00
2019-02-07T03:39:51.115Z,18.60
2019-02-07T03:40:51.104Z,18.00
2019-02-07T03:41:51.095Z,22.40
2019-02-07T03:42:51.088Z,23.90
2019-02-07T03:43:51.072Z,24.20
2019-02-07T03:44:51.063Z,22.10
2019-02-07T03:46:02.278Z,19.80
2019-02-07T03:46:51.045Z,18.90
2019-02-07T03:47:51.035Z,18.00
2019-02-07T03:48:51.026Z,19.70
2019-02-07T03:49:51.011Z,20.80
2019-02-07T03:50:51.012Z,23.10
2019-02-07T03:51:50.994Z,26.10
2019-02-07T03:52:50.995Z,24.60
2019-02-07T03:53:50.974Z,24.50
2019-02-07T03:54:50.965Z,24.30
2019-02-07T03:55:50.950Z,22.30
2019-02-07T03:56:50.940Z,17.70
2019-02-07T03:57:50.929Z,19.90
2019-02-07T03:58:50.922Z,16.70
2019-02-07T03:59:52.476Z,18.70
2019-02-07T04:00:50.902Z,19.60
2019-02-07T04:01:50.894Z,19.60
2019-02-07T04:02:50.881Z,19.90
2019-02-07T04:03:50.870Z,19.30
2019-02-07T04:04:50.866Z,18.30
2019-02-07T04:05:52.477Z,17.90
2019-02-07T04:06:50.847Z,20.30
2019-02-07T04:07:50.829Z,20.30
2019-02-07T04:08:50.818Z,15.90
2019-02-07T04:09:50.808Z,18.90
2019-02-07T04:10:50.799Z,16.60
2019-02-07T04:11:50.791Z,16.70
2019-02-07T04:12:50.786Z,20.80
2019-02-07T04:13:50.769Z,18.00
2019-02-07T04:14:50.760Z,20.10
2019-02-07T04:15:50.750Z,21.80
2019-02-07T04:16:50.741Z,18.60
2019-02-07T04:17:50.732Z,18.50
2019-02-07T04:18:50.720Z,21.90
2019-02-07T04:19:50.707Z,20.20
2019-02-07T04:20:50.697Z,18.20
2019-02-07T04:21:50.691Z,16.60
2019-02-07T04:22:50.681Z,19.90
2019-02-07T04:23:50.668Z,17.20
2019-02-07T04:24:50.658Z,16.10
2019-02-07T04:25:50.646Z,16.60
2019-02-07T04:26:50.638Z,17.20
2019-02-07T04:27:50.633Z,18.60
2019-02-07T04:28:50.620Z,17.00
2019-02-07T04:29:50.609Z,18.10
2019-02-07T04:30:50.600Z,19.30
2019-02-07T04:31:50.590Z,17.30
2019-02-07T04:32:50.576Z,19.80
2019-02-07T04:33:50.568Z,20.40
2019-02-07T04:34:50.559Z,16.20
2019-02-07T04:35:50.551Z,22.50
2019-02-07T04:36:50.541Z,21.60
2019-02-07T04:37:50.526Z,20.90
2019-02-07T04:38:50.518Z,19.20
2019-02-07T04:39:50.509Z,18.40
2019-02-07T04:40:50.502Z,17.90
2019-02-07T04:41:50.489Z,18.80
2019-02-07T04:42:50.487Z,18.70
2019-02-07T04:43:50.465Z,21.70
2019-02-07T04:44:50.458Z,16.90
2019-02-07T04:45:50.446Z,15.80
2019-02-07T04:46:50.436Z,16.30
2019-02-07T04:47:50.427Z,17.30
2019-02-07T04:48:50.417Z,16.90
2019-02-07T04:49:50.409Z,17.80
2019-02-07T04:50:50.400Z,20.80
2019-02-07T04:51:50.386Z,18.70
2019-02-07T04:52:50.374Z,17.90
2019-02-07T04:53:50.381Z,17.00
2019-02-07T04:54:50.358Z,16.10
2019-02-07T04:55:50.349Z,16.30
2019-02-07T04:56:50.336Z,19.60
2019-02-07T04:57:51.996Z,17.70
2019-02-07T04:58:50.315Z,17.10
2019-02-07T04:59:50.308Z,18.30
2019-02-07T05:00:50.301Z,16.10
2019-02-07T05:01:50.289Z,18.50
2019-02-07T05:02:50.278Z,18.80
2019-02-07T05:03:50.264Z,17.90
2019-02-07T05:04:50.254Z,17.30
2019-02-07T05:05:50.246Z,16.90
2019-02-07T05:06:50.235Z,16.10
2019-02-07T05:07:50.227Z,18.30
2019-02-07T05:08:52.000Z,16.80
2019-02-07T05:09:50.204Z,16.90
2019-02-07T05:10:50.200Z,17.70
2019-02-07T05:11:50.189Z,17.80
2019-02-07T05:12:50.178Z,16.60
2019-02-07T05:13:50.169Z,18.00
2019-02-07T05:14:50.160Z,16.00
2019-02-07T05:15:50.150Z,16.90
2019-02-07T05:16:50.134Z,17.50
2019-02-07T05:17:50.125Z,15.90
2019-02-07T05:18:50.118Z,16.60
2019-02-07T05:19:50.107Z,17.80
2019-02-07T05:20:50.102Z,18.90
2019-02-07T05:21:50.086Z,16.40
2019-02-07T05:22:50.079Z,18.20
2019-02-07T05:23:50.068Z,17.90
2019-02-07T05:24:51.997Z,17.50
2019-02-07T05:25:50.049Z,14.40
2019-02-07T05:26:50.041Z,14.70
2019-02-07T05:27:50.024Z,17.50
2019-02-07T05:28:50.016Z,15.00
2019-02-07T05:29:50.010Z,15.30
2019-02-07T05:30:49.998Z,17.00
2019-02-07T05:31:49.993Z,17.10
2019-02-07T05:32:49.981Z,17.70
2019-02-07T05:33:49.974Z,17.30
2019-02-07T05:34:49.962Z,16.50
2019-02-07T05:35:49.947Z,18.10
2019-02-07T05:36:49.943Z,17.20
2019-02-07T05:37:49.928Z,17.50
2019-02-07T05:38:49.920Z,15.00
2019-02-07T05:39:49.906Z,16.00
2019-02-07T05:40:53.507Z,18.20
2019-02-07T05:41:49.880Z,16.30
2019-02-07T05:42:49.881Z,17.30
2019-02-07T05:43:49.872Z,14.90
2019-02-07T05:44:49.862Z,18.80
2019-02-07T05:45:49.853Z,15.90
2019-02-07T05:46:51.291Z,18.40
2019-02-07T05:47:49.832Z,16.50
2019-02-07T05:48:49.821Z,15.70
2019-02-07T05:49:49.814Z,16.20
2019-02-07T05:50:49.805Z,16.50
2019-02-07T05:51:49.794Z,15.40
2019-02-07T05:52:52.565Z,14.30
2019-02-07T05:53:49.827Z,16.60
2019-02-07T05:54:49.766Z,16.50
2019-02-07T05:55:49.753Z,16.30
2019-02-07T05:56:49.744Z,18.30
2019-02-07T05:57:49.734Z,17.30
2019-02-07T05:58:49.727Z,15.20
2019-02-07T05:59:49.712Z,15.50
2019-02-07T06:00:49.708Z,18.80
2019-02-07T06:01:49.692Z,19.00
2019-02-07T06:02:49.677Z,14.70
2019-02-07T06:03:49.675Z,15.40
2019-02-07T06:04:49.665Z,15.90
2019-02-07T06:05:49.655Z,18.00
2019-02-07T06:06:49.647Z,18.00
2019-02-07T06:07:49.635Z,17.20
2019-02-07T06:08:49.621Z,17.70
2019-02-07T06:09:49.614Z,16.00
2019-02-07T06:10:49.609Z,17.40
2019-02-07T06:11:49.599Z,18.10
2019-02-07T06:12:49.588Z,17.60
2019-02-07T06:13:51.517Z,19.20
2019-02-07T06:14:49.588Z,18.20
2019-02-07T06:15:49.556Z,17.70
2019-02-07T06:16:49.548Z,16.60
2019-02-07T06:17:49.545Z,18.00
2019-02-07T06:18:49.538Z,18.60
2019-02-07T06:19:49.518Z,16.00
2019-02-07T06:20:51.015Z,15.50
2019-02-07T06:21:49.498Z,17.00
2019-02-07T06:22:49.494Z,17.20
2019-02-07T06:23:49.479Z,18.20
2019-02-07T06:24:49.471Z,18.60
2019-02-07T06:25:49.464Z,18.40
2019-02-07T06:26:49.452Z,17.40
2019-02-07T06:27:49.439Z,16.70
2019-02-07T06:28:51.018Z,18.90
2019-02-07T06:29:49.421Z,18.10
2019-02-07T06:30:49.412Z,20.60
2019-02-07T06:31:49.406Z,17.30
2019-02-07T06:32:49.390Z,17.90
2019-02-07T06:33:49.380Z,16.50
2019-02-07T06:34:49.373Z,18.40
2019-02-07T06:35:49.363Z,16.90
2019-02-07T06:36:49.356Z,18.50
2019-02-07T06:37:49.345Z,23.50
2019-02-07T06:38:49.337Z,17.00
2019-02-07T06:39:49.322Z,19.70
2019-02-07T06:40:49.311Z,20.20
2019-02-07T06:41:49.301Z,20.20
2019-02-07T06:42:49.307Z,20.70
2019-02-07T06:43:49.290Z,21.10
2019-02-07T06:44:49.275Z,18.20
2019-02-07T06:45:49.261Z,19.50
2019-02-07T06:46:49.255Z,20.10
2019-02-07T06:47:49.248Z,23.80
2019-02-07T06:48:49.233Z,19.50
2019-02-07T06:49:49.227Z,21.10
2019-02-07T06:50:49.219Z,20.80
2019-02-07T06:51:49.204Z,17.80
2019-02-07T06:52:49.194Z,17.50
2019-02-07T06:53:49.184Z,18.70
2019-02-07T06:54:49.176Z,16.30
2019-02-07T06:55:49.169Z,21.50
2019-02-07T06:56:49.161Z,18.70
2019-02-07T06:57:49.149Z,19.40
2019-02-07T06:58:49.139Z,21.70
2019-02-07T06:59:57.406Z,21.00
2019-02-07T07:00:49.119Z,18.00
2019-02-07T07:01:49.136Z,20.90
2019-02-07T07:02:49.101Z,20.20
2019-02-07T07:03:49.087Z,20.20
2019-02-07T07:04:49.306Z,18.50
2019-02-07T07:05:49.070Z,18.30
2019-02-07T07:06:49.060Z,19.40
2019-02-07T07:07:49.053Z,18.40
2019-02-07T07:08:49.042Z,18.90
2019-02-07T07:09:49.033Z,19.70
2019-02-07T07:10:49.027Z,19.10
2019-02-07T07:11:49.010Z,18.20
2019-02-07T07:12:49.000Z,23.10
2019-02-07T07:13:48.990Z,19.90
2019-02-07T07:14:48.995Z,20.00
2019-02-07T07:15:48.974Z,20.30
2019-02-07T07:16:48.965Z,19.90
2019-02-07T07:17:49.043Z,18.50
2019-02-07T07:18:48.943Z,19.00
2019-02-07T07:19:48.935Z,20.20
2019-02-07T07:20:48.927Z,20.20
2019-02-07T07:21:48.918Z,19.60
2019-02-07T07:22:48.908Z,22.20
2019-02-07T07:23:48.898Z,17.30
2019-02-07T07:24:48.885Z,20.20
2019-02-07T07:25:48.874Z,19.50
2019-02-07T07:26:48.871Z,19.20
2019-02-07T07:27:48.859Z,18.10
2019-02-07T07:28:48.850Z,19.60
2019-02-07T07:29:48.841Z,16.40
2019-02-07T07:30:48.831Z,17.60
2019-02-07T07:31:48.818Z,14.30
2019-02-07T07:32:48.808Z,17.70
2019-02-07T07:33:48.803Z,17.60
2019-02-07T07:34:48.794Z,19.80
2019-02-07T07:35:48.781Z,21.20
2019-02-07T07:36:48.772Z,21.10
2019-02-07T07:37:48.758Z,20.20
2019-02-07T07:38:48.753Z,15.90
2019-02-07T07:39:48.746Z,16.50
2019-02-07T07:40:48.735Z,15.10
2019-02-07T07:41:48.722Z,13.90
2019-02-07T07:42:48.717Z,13.50
2019-02-07T07:43:48.703Z,15.00
2019-02-07T07:44:48.695Z,18.40
2019-02-07T07:45:48.689Z,18.80
2019-02-07T07:46:48.680Z,15.20
2019-02-07T07:47:48.671Z,15.20
2019-02-07T07:48:48.663Z,14.40
2019-02-07T07:49:48.652Z,17.10
2019-02-07T07:50:48.641Z,15.90
2019-02-07T07:51:48.634Z,17.80
2019-02-07T07:52:48.626Z,14.80
2019-02-07T07:53:48.619Z,15.20
2019-02-07T07:54:48.607Z,18.90
2019-02-07T07:55:48.596Z,19.40
2019-02-07T07:56:48.585Z,16.80
2019-02-07T07:57:48.577Z,14.30
2019-02-07T07:58:48.569Z,13.40
2019-02-07T07:59:48.562Z,15.10
2019-02-07T08:00:48.555Z,13.60
2019-02-07T08:01:48.543Z,16.10
2019-02-07T08:02:48.535Z,15.60
2019-02-07T08:03:48.522Z,14.10
2019-02-07T08:04:48.516Z,15.20
2019-02-07T08:05:48.508Z,14.70
2019-02-07T08:06:48.499Z,13.60
2019-02-07T08:07:48.490Z,13.40
2019-02-07T08:08:48.478Z,14.30
2019-02-07T08:09:48.469Z,12.20
2019-02-07T08:10:48.465Z,12.80
2019-02-07T08:11:48.454Z,13.90
2019-02-07T08:12:48.446Z,12.00
2019-02-07T08:13:48.437Z,12.20
2019-02-07T08:14:48.428Z,11.30
2019-02-07T08:15:48.416Z,14.30
2019-02-07T08:16:48.402Z,13.70
2019-02-07T08:17:48.400Z,14.90
2019-02-07T08:18:48.391Z,13.70
2019-02-07T08:19:48.384Z,14.10
2019-02-07T08:20:48.375Z,13.90
2019-02-07T08:21:48.362Z,11.30
2019-02-07T08:22:48.352Z,11.60
2019-02-07T08:23:48.349Z,12.00
2019-02-07T08:24:48.339Z,12.10
2019-02-07T08:25:48.329Z,12.10
2019-02-07T08:26:48.322Z,11.30
2019-02-07T08:27:48.312Z,17.10
2019-02-07T08:28:48.300Z,12.40
2019-02-07T08:29:48.295Z,14.00
2019-02-07T08:30:48.281Z,10.70
2019-02-07T08:31:48.279Z,12.20
2019-02-07T08:32:48.279Z,12.60
2019-02-07T08:33:48.265Z,9.80
2019-02-07T08:34:48.256Z,9.60
2019-02-07T08:35:48.240Z,10.40
2019-02-07T08:36:48.237Z,11.60
2019-02-07T08:37:48.247Z,9.60
2019-02-07T08:38:49.946Z,8.30
2019-02-07T08:39:48.220Z,10.80
2019-02-07T08:40:48.199Z,9.90
2019-02-07T08:41:48.192Z,10.40
2019-02-07T08:42:48.182Z,10.60
2019-02-07T08:43:48.179Z,10.00
2019-02-07T08:44:48.168Z,9.20
2019-02-07T08:45:48.155Z,9.30
2019-02-07T08:46:48.185Z,9.60
2019-02-07T08:47:58.164Z,9.60
2019-02-07T08:48:48.132Z,10.10
2019-02-07T08:49:48.124Z,8.70
2019-02-07T08:50:48.113Z,10.60
2019-02-07T08:51:48.108Z,7.60
2019-02-07T08:52:48.098Z,9.40
2019-02-07T08:53:48.088Z,9.70
2019-02-07T08:54:48.080Z,7.90
2019-02-07T08:55:48.075Z,8.80
2019-02-07T08:56:48.067Z,9.70
2019-02-07T08:57:48.060Z,8.20
2019-02-07T08:58:48.065Z,8.90
2019-02-07T08:59:48.038Z,8.40
2019-02-07T09:00:48.032Z,10.10
2019-02-07T09:01:48.025Z,8.80
2019-02-07T09:02:51.863Z,7.90
2019-02-07T09:03:48.009Z,8.10
2019-02-07T09:04:47.999Z,10.30
2019-02-07T09:05:47.992Z,8.40
2019-02-07T09:06:47.983Z,9.30
2019-02-07T09:07:47.972Z,11.00
2019-02-07T09:08:47.972Z,8.40
2019-02-07T09:09:47.957Z,8.30
2019-02-07T09:10:47.951Z,7.40
2019-02-07T09:11:47.940Z,8.40
2019-02-07T09:12:47.932Z,9.80
2019-02-07T09:13:47.924Z,8.20
2019-02-07T09:14:47.913Z,11.10
2019-02-07T09:15:47.910Z,9.70
2019-02-07T09:16:47.900Z,9.80
2019-02-07T09:17:47.893Z,9.80
2019-02-07T09:18:47.883Z,9.50
2019-02-07T09:19:47.872Z,9.80
2019-02-07T09:20:47.876Z,8.60
2019-02-07T09:21:47.850Z,10.40
2019-02-07T09:22:47.847Z,10.60
2019-02-07T09:23:47.843Z,9.70
2019-02-07T09:24:47.836Z,7.80
2019-02-07T09:25:47.825Z,10.00
2019-02-07T09:26:47.817Z,10.40
2019-02-07T09:27:47.810Z,7.30
2019-02-07T09:28:47.802Z,8.20
2019-02-07T09:29:47.806Z,8.60
2019-02-07T09:30:47.786Z,7.80
2019-02-07T09:31:47.775Z,8.60
2019-02-07T09:32:47.766Z,8.10
2019-02-07T09:33:47.761Z,9.30
2019-02-07T09:34:47.750Z,8.10
2019-02-07T09:35:47.746Z,10.60
2019-02-07T09:36:47.741Z,7.10
2019-02-07T09:37:47.732Z,9.50
2019-02-07T09:38:47.724Z,8.20
2019-02-07T09:39:47.714Z,9.50
2019-02-07T09:40:47.706Z,9.00
2019-02-07T09:41:47.701Z,9.70
2019-02-07T09:42:47.694Z,9.60
2019-02-07T09:43:47.683Z,9.60
2019-02-07T09:44:47.673Z,7.90
2019-02-07T09:45:47.668Z,9.10
2019-02-07T09:46:47.660Z,10.30
2019-02-07T09:47:47.653Z,9.70
2019-02-07T09:48:47.645Z,9.00
2019-02-07T09:49:47.637Z,10.10
2019-02-07T09:50:47.629Z,8.90
2019-02-07T09:51:47.622Z,10.90
2019-02-07T09:52:47.613Z,11.20
2019-02-07T09:53:47.603Z,9.00
2019-02-07T09:54:47.595Z,10.80
2019-02-07T09:55:47.599Z,10.40
2019-02-07T09:56:47.582Z,8.20
2019-02-07T09:57:47.575Z,8.30
2019-02-07T09:58:47.563Z,10.70
2019-02-07T09:59:47.561Z,10.20
2019-02-07T10:00:47.558Z,9.40
2019-02-07T10:01:47.552Z,9.20
2019-02-07T10:02:47.540Z,10.00
2019-02-07T10:03:47.527Z,10.60
2019-02-07T10:04:47.521Z,10.00
2019-02-07T10:05:47.514Z,10.10
2019-02-07T10:06:47.507Z,10.40
2019-02-07T10:07:47.503Z,10.50
2019-02-07T10:08:47.492Z,10.10
2019-02-07T10:09:47.485Z,8.20
2019-02-07T10:10:47.475Z,8.70
2019-02-07T10:11:47.468Z,8.20
2019-02-07T10:12:47.463Z,8.40
2019-02-07T10:13:47.459Z,9.50
2019-02-07T10:14:47.454Z,8.70
2019-02-07T10:15:47.438Z,8.60
2019-02-07T10:16:47.432Z,10.10
2019-02-07T10:17:47.429Z,9.00
2019-02-07T10:18:47.417Z,8.10
2019-02-07T10:19:47.412Z,11.20
2019-02-07T10:20:47.411Z,7.60
2019-02-07T10:21:47.399Z,7.20
2019-02-07T10:22:47.393Z,7.70
2019-02-07T10:23:47.381Z,9.10
2019-02-07T10:24:47.378Z,7.60
2019-02-07T10:25:47.368Z,7.70
2019-02-07T10:26:47.357Z,6.80
2019-02-07T10:27:47.356Z,6.90
2019-02-07T10:28:47.351Z,7.90
2019-02-07T10:29:47.341Z,6.90
2019-02-07T10:30:47.333Z,8.20
2019-02-07T10:31:47.332Z,7.20
2019-02-07T10:32:47.322Z,9.10
2019-02-07T10:33:47.313Z,8.50
2019-02-07T10:34:47.312Z,6.10
2019-02-07T10:35:47.293Z,8.50
2019-02-07T10:36:47.293Z,6.50
2019-02-07T10:37:47.284Z,8.50
2019-02-07T10:38:47.275Z,6.40
2019-02-07T10:39:47.273Z,6.40
2019-02-07T10:40:47.272Z,6.80
2019-02-07T10:41:47.260Z,8.40
2019-02-07T10:42:47.252Z,5.50
2019-02-07T10:43:47.280Z,7.40
2019-02-07T10:44:47.238Z,6.20
2019-02-07T10:45:47.238Z,9.00
2019-02-07T10:46:47.227Z,5.80
2019-02-07T10:47:47.219Z,6.20
2019-02-07T10:48:47.212Z,6.90
2019-02-07T10:49:57.515Z,8.60
2019-02-07T10:50:47.198Z,6.00
2019-02-07T10:51:47.195Z,6.20
2019-02-07T10:52:47.184Z,7.00
2019-02-07T10:53:47.179Z,6.50
2019-02-07T10:54:47.178Z,5.30
2019-02-07T10:55:47.164Z,8.80
2019-02-07T10:56:47.160Z,7.70
2019-02-07T10:57:47.154Z,9.40
2019-02-07T10:58:47.148Z,6.90
2019-02-07T10:59:47.142Z,5.80
2019-02-07T11:00:47.135Z,8.00
2019-02-07T11:01:47.126Z,8.00
2019-02-07T11:02:47.119Z,9.40
2019-02-07T11:03:47.116Z,6.60
2019-02-07T11:04:47.108Z,7.80
2019-02-07T11:05:47.104Z,10.40
2019-02-07T11:06:47.098Z,9.90
2019-02-07T11:07:47.086Z,7.50
2019-02-07T11:08:47.084Z,8.20
2019-02-07T11:09:47.071Z,8.40
2019-02-07T11:10:47.068Z,6.50
2019-02-07T11:11:47.063Z,8.20
2019-02-07T11:12:47.059Z,6.30
2019-02-07T11:13:47.052Z,8.50
2019-02-07T11:14:47.048Z,7.50
2019-02-07T11:15:47.038Z,7.90
2019-02-07T11:16:47.035Z,7.50
2019-02-07T11:17:47.028Z,7.70
2019-02-07T11:18:55.227Z,10.80
2019-02-07T11:19:47.011Z,8.10
2019-02-07T11:20:48.644Z,11.70
2019-02-07T11:21:46.997Z,8.00
2019-02-07T11:22:46.996Z,9.80
2019-02-07T11:23:48.648Z,7.80
2019-02-07T11:24:46.984Z,11.80
2019-02-07T11:25:46.982Z,8.70
2019-02-07T11:26:46.975Z,10.60
2019-02-07T11:27:46.967Z,10.40
2019-02-07T11:28:46.955Z,8.20
2019-02-07T11:29:46.951Z,9.00
2019-02-07T11:30:46.947Z,11.90
2019-02-07T11:31:46.942Z,9.10
2019-02-07T11:32:46.936Z,12.00
2019-02-07T11:33:46.928Z,13.10
2019-02-07T11:34:46.921Z,12.50
2019-02-07T11:35:46.919Z,12.00
2019-02-07T11:36:53.805Z,8.70
2019-02-07T11:37:46.907Z,8.80
2019-02-07T11:38:46.901Z,8.60
2019-02-07T11:39:46.891Z,10.30
2019-02-07T11:40:46.888Z,14.00
2019-02-07T11:41:46.881Z,15.90
2019-02-07T11:42:46.873Z,11.40
2019-02-07T11:43:46.871Z,9.30
2019-02-07T11:44:46.866Z,9.40
2019-02-07T11:45:46.860Z,11.30
2019-02-07T11:46:48.807Z,11.70
2019-02-07T11:47:46.844Z,11.60
2019-02-07T11:48:46.842Z,7.80
2019-02-07T11:49:46.837Z,12.40
2019-02-07T11:50:46.830Z,13.30
2019-02-07T11:51:46.820Z,11.10
2019-02-07T11:52:46.816Z,14.20
2019-02-07T11:53:46.811Z,15.20
2019-02-07T11:54:46.803Z,10.60
2019-02-07T11:55:46.801Z,10.60
2019-02-07T11:56:46.796Z,18.50
2019-02-07T11:57:46.789Z,10.70
2019-02-07T11:58:46.787Z,17.60
2019-02-07T11:59:46.773Z,16.50
2019-02-07T12:00:46.771Z,9.20
2019-02-07T12:01:46.764Z,17.00
2019-02-07T12:02:46.756Z,11.00
2019-02-07T12:03:46.755Z,15.50
2019-02-07T12:04:46.748Z,7.50
2019-02-07T12:05:46.738Z,14.40
2019-02-07T12:06:46.731Z,13.60
2019-02-07T12:07:46.729Z,14.10
2019-02-07T12:08:46.721Z,11.60
2019-02-07T12:09:46.715Z,14.80
2019-02-07T12:10:47.713Z,15.90
2019-02-07T12:11:48.557Z,12.80
2019-02-07T12:12:46.696Z,12.60
2019-02-07T12:13:46.687Z,11.40
2019-02-07T12:14:46.679Z,15.50
2019-02-07T12:15:46.678Z,11.00
2019-02-07T12:16:46.668Z,13.90
2019-02-07T12:17:46.667Z,10.90
2019-02-07T12:18:46.661Z,16.30
2019-02-07T12:19:46.649Z,12.10
2019-02-07T12:20:46.645Z,10.70
2019-02-07T12:21:46.643Z,10.60
2019-02-07T12:22:46.637Z,14.30
2019-02-07T12:23:46.624Z,16.00
2019-02-07T12:24:46.622Z,10.40
2019-02-07T12:25:46.614Z,11.00
2019-02-07T12:26:46.607Z,20.70
2019-02-07T12:27:46.604Z,9.70
2019-02-07T12:28:46.601Z,12.40
2019-02-07T12:29:46.591Z,9.40
2019-02-07T12:30:46.588Z,15.80
2019-02-07T12:31:46.576Z,9.40
2019-02-07T12:32:46.573Z,12.10
2019-02-07T12:33:46.563Z,12.30
2019-02-07T12:34:46.556Z,11.90
2019-02-07T12:35:46.555Z,10.50
2019-02-07T12:36:46.549Z,13.00
2019-02-07T12:37:46.545Z,11.30
2019-02-07T12:38:46.532Z,15.70
2019-02-07T12:39:46.532Z,10.10
2019-02-07T12:40:46.527Z,12.40
2019-02-07T12:41:46.518Z,12.80
2019-02-07T12:42:46.512Z,9.70
2019-02-07T12:43:46.501Z,14.10
2019-02-07T12:44:46.497Z,11.50
2019-02-07T12:45:46.493Z,12.00
2019-02-07T12:46:46.488Z,13.60
2019-02-07T12:47:46.478Z,10.20
2019-02-07T12:48:46.470Z,14.80
2019-02-07T12:49:46.463Z,13.20
2019-02-07T12:50:46.460Z,11.80
2019-02-07T12:51:46.455Z,13.00
2019-02-07T12:52:46.450Z,15.00
2019-02-07T12:53:46.439Z,13.00
2019-02-07T12:54:46.435Z,10.20
2019-02-07T12:55:52.201Z,11.20
2019-02-07T12:56:46.424Z,9.00
2019-02-07T12:57:46.419Z,11.40